Cotes De La Manche — FQBE — position and weather

sailwx.info

Track history (hours):
 
Tides and Currents Weather Stations Pressure Air Temp Water Temp Dewpoint Dewpoint Depression Visibility Wind Speed Wind Dir Waves Ship Positions

Cotes De La Manche

Last reported at 2017-Nov-19 06:31 UTC. Time now 2017-Nov-19 06:58 UTC.
Position N 45°32' W 001°09'.

Length 25 m; draft 3.7 m.

Type: . MMSI: 227091000.

Date/timePositionNaut miles runAvg speedWind from/ knotsBaromVisibWave heightAir tempDewpointWater temp
2017-Nov-19 06:31N 45°32' W 001°09'4 8.2
2017-Nov-19 06:00N 45°34' W 001°03'0 0.1
2017-Nov-19 05:31N 45°34' W 001°03'0 0.0
2017-Nov-19 05:00N 45°34' W 001°03'0 0.0
2017-Nov-19 04:31N 45°34' W 001°03'0 0.0
2017-Nov-19 04:01N 45°34' W 001°03'0 0.0
2017-Nov-19 03:30N 45°34' W 001°03'0 0.1
2017-Nov-19 02:59N 45°34' W 001°03'0 0.0
2017-Nov-19 02:31N 45°34' W 001°03'0 0.0
2017-Nov-19 02:00N 45°34' W 001°03'0 0.0
2017-Nov-19 01:30N 45°34' W 001°03'0 0.0
2017-Nov-19 01:01N 45°34' W 001°03'0 0.0
2017-Nov-19 00:31N 45°34' W 001°03'0 0.0
2017-Nov-19 00:01N 45°34' W 001°03'0 0.1
2017-Nov-18 23:30N 45°34' W 001°03'0 0.0
2017-Nov-18 23:00N 45°34' W 001°03'0 0.0
2017-Nov-18 22:31N 45°34' W 001°03'0 0.0
2017-Nov-18 22:01N 45°34' W 001°03'0 0.0
2017-Nov-18 21:31N 45°34' W 001°03'0 0.0
2017-Nov-18 21:00N 45°34' W 001°03'0 0.0
2017-Nov-18 20:30N 45°34' W 001°03'0 0.0
2017-Nov-18 20:01N 45°34' W 001°03'0 0.0
2017-Nov-18 19:31N 45°34' W 001°03'0 0.0
2017-Nov-18 19:00N 45°34' W 001°03'0 0.0
2017-Nov-18 18:31N 45°34' W 001°03'0 0.0
2017-Nov-18 18:01N 45°34' W 001°03'0 0.0
2017-Nov-18 17:29N 45°34' W 001°03'1 3.1
2017-Nov-18 17:01N 45°35' W 001°04'510.3
2017-Nov-18 16:30N 45°32' W 001°10'31 3.8
2017-Nov-18 08:24N 45°01' W 001°17'610.1
2017-Nov-18 07:51N 44°56' W 001°16'1 4.3
2017-Nov-18 07:30N 44°54' W 001°16'2 3.3
2017-Nov-18 07:00N 44°53' W 001°15'0 0.2
2017-Nov-18 06:30N 44°53' W 001°15'0 0.0
2017-Nov-18 06:00N 44°53' W 001°15'0 0.0
2017-Nov-18 05:30N 44°53' W 001°15'0 0.0
2017-Nov-18 05:00N 44°53' W 001°15'0 0.0
2017-Nov-18 04:30N 44°53' W 001°15'0 0.0
2017-Nov-18 04:00N 44°53' W 001°15'0 0.0
2017-Nov-18 03:30N 44°53' W 001°15'0 0.0
2017-Nov-18 03:00N 44°53' W 001°15'0 0.0
2017-Nov-18 02:30N 44°53' W 001°15'0 0.0
2017-Nov-18 02:00N 44°53' W 001°15'0 0.0
2017-Nov-18 01:30N 44°53' W 001°15'0 0.0
2017-Nov-18 01:00N 44°53' W 001°15'0 0.0
2017-Nov-18 00:30N 44°53' W 001°15'0 0.0
2017-Nov-18 00:00N 44°53' W 001°15'0 0.0
2017-Nov-17 23:30N 44°53' W 001°15'0 0.0
2017-Nov-17 23:00N 44°53' W 001°15'0 0.0
2017-Nov-17 22:30N 44°53' W 001°15'0 0.0
2017-Nov-17 22:00N 44°53' W 001°15'0 0.0
2017-Nov-17 21:30N 44°53' W 001°15'0 0.0
2017-Nov-17 21:00N 44°53' W 001°15'0 0.0
2017-Nov-17 20:30N 44°53' W 001°15'0 0.0
2017-Nov-17 19:58N 44°53' W 001°15'0 0.0
2017-Nov-17 19:30N 44°53' W 001°15'0 0.0
2017-Nov-17 19:00N 44°53' W 001°15'0 0.0
2017-Nov-17 18:30N 44°53' W 001°15'0 0.0
2017-Nov-17 18:00N 44°53' W 001°15'2 3.0
2017-Nov-17 17:28N 44°54' W 001°17'5 1.7
2017-Nov-17 14:25N 44°51' W 001°22'2 5.0
2017-Nov-17 14:00N 44°49' W 001°23'3 5.9
2017-Nov-17 13:30N 44°46' W 001°25'3 6.3
2017-Nov-17 13:00N 44°43' W 001°27'2 3.9
2017-Nov-17 12:30N 44°41' W 001°27'1 1.9
2017-Nov-17 11:59N 44°40' W 001°28'0 0.2
2017-Nov-17 11:29N 44°41' W 001°28'1 2.6
2017-Nov-17 10:59N 44°40' W 001°26'1 2.5
2017-Nov-17 10:29N 44°40' W 001°24'2 3.7
2017-Nov-17 10:00N 44°39' W 001°22'3 5.1
2017-Nov-17 09:30N 44°36' W 001°22'3 6.4
2017-Nov-17 09:00N 44°33' W 001°22'510.0
2017-Nov-17 08:30N 44°28' W 001°21'4 8.2
2017-Nov-17 08:00N 44°24' W 001°20'2 4.8
2017-Nov-17 07:30N 44°27' W 001°19'3 6.6
2017-Nov-17 07:00N 44°29' W 001°17'0 0.1
2017-Nov-17 06:30N 44°29' W 001°17'0 0.0
2017-Nov-17 06:00N 44°29' W 001°17'0 0.0
2017-Nov-17 05:27N 44°29' W 001°17'0 0.0
2017-Nov-17 05:00N 44°29' W 001°17'0 0.0
2017-Nov-17 04:30N 44°29' W 001°17'0 0.0
2017-Nov-17 04:00N 44°29' W 001°17'0 0.0
2017-Nov-17 03:27N 44°29' W 001°17'0 0.0
2017-Nov-17 03:00N 44°29' W 001°17'0 0.0
2017-Nov-17 02:30N 44°29' W 001°17'0 0.0
2017-Nov-17 02:00N 44°29' W 001°17'0 0.0
2017-Nov-17 01:27N 44°29' W 001°17'0 0.0
2017-Nov-17 00:51N 44°29' W 001°17'0 0.0
2017-Nov-17 00:24N 44°29' W 001°17'0 0.0
2017-Nov-17 00:00N 44°29' W 001°17'0 0.0
2017-Nov-16 23:27N 44°29' W 001°17'0 0.0
2017-Nov-16 23:00N 44°29' W 001°17'0 0.0
2017-Nov-16 22:30N 44°29' W 001°17'0 0.0
2017-Nov-16 21:57N 44°29' W 001°17'0 0.0
2017-Nov-16 21:30N 44°29' W 001°17'0 0.0
2017-Nov-16 21:00N 44°29' W 001°17'1 1.9
2017-Nov-16 20:30N 44°30' W 001°18'510.2
2017-Nov-16 20:00N 44°35' W 001°20'510.2
2017-Nov-16 19:30N 44°39' W 001°23'510.1
2017-Nov-16 19:00N 44°44' W 001°26'510.4
2017-Nov-16 18:30N 44°49' W 001°27'38 4.0
2017-Nov-16 08:59N 45°26' W 001°18'1 2.2
2017-Nov-16 08:30N 45°27' W 001°17'4 4.8
2017-Nov-16 07:45N 45°30' W 001°14'311.4
2017-Nov-16 07:30N 45°32' W 001°11'611.9
2017-Nov-16 07:00N 45°35' W 001°04'1 2.0
2017-Nov-16 06:28N 45°34' W 001°03'0 0.0
2017-Nov-16 05:55N 45°34' W 001°03'0 0.0
2017-Nov-16 05:28N 45°34' W 001°03'0 0.0
2017-Nov-16 04:52N 45°34' W 001°03'0 0.0
2017-Nov-16 04:28N 45°34' W 001°03'0 0.0
2017-Nov-16 03:52N 45°34' W 001°03'0 0.0
2017-Nov-16 03:28N 45°34' W 001°03'0 0.1
2017-Nov-16 02:58N 45°34' W 001°03'0 0.0
2017-Nov-16 02:07N 45°34' W 001°03'0 0.1
2017-Nov-16 01:58N 45°34' W 001°03'0 0.0
2017-Nov-16 01:22N 45°34' W 001°03'0 0.0
2017-Nov-16 00:58N 45°34' W 001°03'0 0.0
2017-Nov-16 00:22N 45°34' W 001°03'0 0.1
2017-Nov-15 23:55N 45°34' W 001°03'0 0.1
2017-Nov-15 23:22N 45°34' W 001°03'0 0.1
2017-Nov-15 22:58N 45°34' W 001°03'0 0.0
2017-Nov-15 22:25N 45°34' W 001°03'0 0.1
2017-Nov-15 21:58N 45°34' W 001°03'0 0.0
2017-Nov-15 21:25N 45°34' W 001°03'0 0.0
2017-Nov-15 20:34N 45°34' W 001°03'0 0.0
2017-Nov-15 20:28N 45°34' W 001°03'0 0.0
2017-Nov-15 19:55N 45°34' W 001°03'0 0.0
2017-Nov-15 19:25N 45°34' W 001°03'0 0.0
2017-Nov-15 18:58N 45°34' W 001°03'0 0.1
2017-Nov-15 18:30N 45°34' W 001°03'3 5.8
2017-Nov-15 18:00N 45°36' W 001°05'7 7.4
2017-Nov-15 17:01N 45°39' W 001°14'15 2.3
2017-Nov-15 10:12N 45°47' W 001°33'1 5.0
2017-Nov-15 09:57N 45°49' W 001°33'3 3.9
2017-Nov-15 09:15N 45°51' W 001°32'3 9.9
2017-Nov-15 09:00N 45°54' W 001°32'5 9.7
2017-Nov-15 08:30N 45°58' W 001°30'5 9.5
2017-Nov-15 08:00N 46°03' W 001°27'4 8.7
2017-Nov-15 07:30N 46°05' W 001°22'510.4
2017-Nov-15 07:00N 46°08' W 001°15'2 3.8
2017-Nov-15 06:30N 46°09' W 001°13'0 0.0
2017-Nov-15 06:00N 46°09' W 001°13'0 0.0
2017-Nov-15 05:30N 46°09' W 001°13'0 0.0
2017-Nov-15 05:00N 46°09' W 001°13'0 0.0
2017-Nov-15 04:30N 46°09' W 001°13'0 0.0
2017-Nov-15 04:00N 46°09' W 001°13'0 0.0
2017-Nov-15 03:30N 46°09' W 001°13'0 0.0
2017-Nov-15 03:00N 46°09' W 001°13'0 0.0
2017-Nov-15 02:30N 46°09' W 001°13'0 0.0
2017-Nov-15 02:00N 46°09' W 001°13'0 0.0
2017-Nov-15 01:30N 46°09' W 001°13'0 0.0
2017-Nov-15 01:00N 46°09' W 001°13'0 0.0
2017-Nov-15 00:30N 46°09' W 001°13'0 0.0
2017-Nov-15 00:00N 46°09' W 001°13'0 0.0
2017-Nov-14 23:30N 46°09' W 001°13'0 0.0
2017-Nov-14 23:00N 46°09' W 001°13'0 0.0
2017-Nov-14 22:30N 46°09' W 001°13'0 0.0
2017-Nov-14 22:00N 46°09' W 001°13'0 0.0
2017-Nov-14 21:30N 46°09' W 001°13'0 0.0
2017-Nov-14 21:00N 46°09' W 001°13'0 0.0
2017-Nov-14 20:30N 46°09' W 001°13'0 0.0
2017-Nov-14 20:00N 46°09' W 001°13'0 0.0
2017-Nov-14 19:30N 46°09' W 001°13'0 0.0
2017-Nov-14 19:00N 46°09' W 001°13'0 0.0
2017-Nov-14 18:30N 46°09' W 001°13'0 0.0
2017-Nov-14 18:00N 46°09' W 001°13'0 0.0
2017-Nov-14 17:30N 46°09' W 001°13'0 0.0
2017-Nov-14 17:00N 46°09' W 001°13'0 0.0
2017-Nov-14 16:30N 46°09' W 001°13'0 0.0
2017-Nov-14 16:00N 46°09' W 001°13'0 0.0
2017-Nov-14 15:30N 46°09' W 001°13'0 0.1
2017-Nov-14 15:00N 46°09' W 001°13'0 0.0
2017-Nov-14 14:30N 46°09' W 001°13'0 0.0
2017-Nov-14 14:00N 46°09' W 001°13'0 0.0
2017-Nov-14 13:30N 46°09' W 001°13'0 0.0
2017-Nov-14 13:00N 46°09' W 001°13'0 0.0
2017-Nov-14 12:30N 46°09' W 001°13'0 0.0
2017-Nov-14 12:00N 46°09' W 001°13'0 0.0
2017-Nov-14 11:30N 46°09' W 001°13'0 0.0
2017-Nov-14 11:00N 46°09' W 001°13'0 0.0
2017-Nov-14 10:30N 46°09' W 001°13'0 0.0
2017-Nov-14 10:00N 46°09' W 001°13'0 0.0
2017-Nov-14 09:30N 46°09' W 001°13'0 0.0
2017-Nov-14 09:00N 46°09' W 001°13'0 0.0
2017-Nov-14 07:51N 46°09' W 001°13'0 0.1
2017-Nov-14 07:30N 46°09' W 001°13'0 0.0
2017-Nov-14 07:00N 46°09' W 001°13'0 0.0
2017-Nov-14 06:30N 46°09' W 001°13'0 0.0
2017-Nov-14 06:00N 46°09' W 001°13'0 0.0
2017-Nov-14 05:27N 46°09' W 001°13'0 0.0
2017-Nov-14 05:00N 46°09' W 001°13'0 0.0
2017-Nov-14 04:30N 46°09' W 001°13'0 0.0
2017-Nov-14 04:00N 46°09' W 001°13'0 0.0
2017-Nov-14 03:27N 46°09' W 001°13'0 0.0
2017-Nov-14 03:00N 46°09' W 001°13'0 0.0
2017-Nov-14 02:30N 46°09' W 001°13'0 0.0
2017-Nov-14 02:00N 46°09' W 001°13'0 0.0
2017-Nov-14 01:30N 46°09' W 001°13'0 0.0
2017-Nov-14 01:00N 46°09' W 001°13'0 0.0
2017-Nov-14 00:30N 46°09' W 001°13'0 0.0
2017-Nov-14 00:00N 46°09' W 001°13'0 0.0
2017-Nov-13 23:30N 46°09' W 001°13'0 0.0
2017-Nov-13 22:57N 46°09' W 001°13'0 0.0
2017-Nov-13 22:30N 46°09' W 001°13'0 0.0
2017-Nov-13 22:00N 46°09' W 001°13'0 0.0
2017-Nov-13 01:55N 46°09' W 001°13'0 0.0
2017-Nov-13 01:28N 46°09' W 001°13'0 0.0
2017-Nov-13 00:58N 46°09' W 001°13'0 0.0
2017-Nov-13 00:25N 46°09' W 001°13'0 0.0
2017-Nov-12 23:58N 46°09' W 001°13'0 0.0
2017-Nov-12 23:28N 46°09' W 001°13'0 0.0
2017-Nov-12 22:58N 46°09' W 001°13'0 0.0
2017-Nov-12 22:28N 46°09' W 001°13'0 0.0
2017-Nov-12 21:58N 46°09' W 001°13'0 0.0
2017-Nov-12 21:25N 46°09' W 001°13'0 0.0
2017-Nov-12 20:58N 46°09' W 001°13'0 0.0
2017-Nov-12 20:25N 46°09' W 001°13'0 0.0
2017-Nov-12 19:58N 46°09' W 001°13'0 0.0
2017-Nov-12 19:28N 46°09' W 001°13'0 0.0
2017-Nov-12 18:58N 46°09' W 001°13'0 0.0
2017-Nov-12 18:28N 46°09' W 001°13'0 0.0
2017-Nov-12 17:58N 46°09' W 001°13'0 0.0
2017-Nov-12 17:28N 46°09' W 001°13'0 0.0
2017-Nov-12 16:59N 46°09' W 001°13'4 7.6
2017-Nov-12 16:30N 46°05' W 001°15'510.4
2017-Nov-12 16:00N 46°01' W 001°11'0 0.5
2017-Nov-12 15:30N 46°01' W 001°12'5 6.9
2017-Nov-12 14:51N 46°03' W 001°17'1 4.0
2017-Nov-12 14:30N 46°04' W 001°19'3 5.4
2017-Nov-12 14:00N 46°06' W 001°16'3 6.4
2017-Nov-12 13:29N 46°09' W 001°13'0 0.0
2017-Nov-12 12:59N 46°09' W 001°13'0 0.0
2017-Nov-12 12:29N 46°09' W 001°13'0 0.0
2017-Nov-12 11:59N 46°09' W 001°13'0 0.0
2017-Nov-12 11:26N 46°09' W 001°13'0 0.0
2017-Nov-12 10:59N 46°09' W 001°13'0 0.0
2017-Nov-12 10:29N 46°09' W 001°13'0 0.0
2017-Nov-12 09:59N 46°09' W 001°13'0 0.0
2017-Nov-12 09:29N 46°09' W 001°13'0 0.0
2017-Nov-12 08:59N 46°09' W 001°13'0 0.0
2017-Nov-12 08:29N 46°09' W 001°13'0 0.0
2017-Nov-12 07:59N 46°09' W 001°13'0 0.0
2017-Nov-12 07:29N 46°09' W 001°13'0 0.0
2017-Nov-12 06:59N 46°09' W 001°13'0 0.0
2017-Nov-12 06:29N 46°09' W 001°13'0 0.0
2017-Nov-12 05:56N 46°09' W 001°13'0 0.0
2017-Nov-12 05:29N 46°09' W 001°13'0 0.0
2017-Nov-12 04:59N 46°09' W 001°13'0 0.0
2017-Nov-12 04:29N 46°09' W 001°13'0 0.0
2017-Nov-12 03:59N 46°09' W 001°13'0 0.0
2017-Nov-12 03:29N 46°09' W 001°13'0 0.0
2017-Nov-12 02:59N 46°09' W 001°13'0 0.0
2017-Nov-12 02:29N 46°09' W 001°13'0 0.0
2017-Nov-12 01:56N 46°09' W 001°13'0 0.0
2017-Nov-12 01:29N 46°09' W 001°13'0 0.0
2017-Nov-12 00:59N 46°09' W 001°13'0 0.0
2017-Nov-12 00:29N 46°09' W 001°13'0 0.0
2017-Nov-11 23:59N 46°09' W 001°13'0 0.0
2017-Nov-11 23:29N 46°09' W 001°13'0 0.0
2017-Nov-11 22:59N 46°09' W 001°13'0 0.0
2017-Nov-11 22:29N 46°09' W 001°13'0 0.0
2017-Nov-11 21:59N 46°09' W 001°13'0 0.0
2017-Nov-11 21:29N 46°09' W 001°13'0 0.0
2017-Nov-11 20:59N 46°09' W 001°13'0 0.0
2017-Nov-11 20:29N 46°09' W 001°13'0 0.0
2017-Nov-11 19:59N 46°09' W 001°13'0 0.0
2017-Nov-11 19:29N 46°09' W 001°13'0 0.0
2017-Nov-11 18:59N 46°09' W 001°13'0 0.0
2017-Nov-11 18:29N 46°09' W 001°13'0 0.0
2017-Nov-11 17:59N 46°09' W 001°13'0 0.0
2017-Nov-11 17:29N 46°09' W 001°13'0 0.0
2017-Nov-11 16:59N 46°09' W 001°13'0 0.0
2017-Nov-11 16:23N 46°09' W 001°13'0 0.0
2017-Nov-11 15:59N 46°09' W 001°13'0 0.0
2017-Nov-11 15:29N 46°09' W 001°13'0 0.0
2017-Nov-11 14:59N 46°09' W 001°13'0 0.0
2017-Nov-11 14:29N 46°09' W 001°13'0 0.0
2017-Nov-11 13:56N 46°09' W 001°13'0 0.0
2017-Nov-11 13:29N 46°09' W 001°13'0 0.0
2017-Nov-11 12:59N 46°09' W 001°13'0 0.0
2017-Nov-11 12:29N 46°09' W 001°13'0 0.0
2017-Nov-11 11:59N 46°09' W 001°13'0 0.0
2017-Nov-11 11:29N 46°09' W 001°13'0 0.0
2017-Nov-11 10:59N 46°09' W 001°13'0 0.0
2017-Nov-11 10:29N 46°09' W 001°13'0 0.0
2017-Nov-11 09:59N 46°09' W 001°13'0 0.0
2017-Nov-11 09:29N 46°09' W 001°13'0 0.0
2017-Nov-11 08:59N 46°09' W 001°13'0 0.0
2017-Nov-11 08:29N 46°09' W 001°13'0 0.0
2017-Nov-11 07:59N 46°09' W 001°13'0 0.0
2017-Nov-11 07:26N 46°09' W 001°13'0 0.0
2017-Nov-11 06:59N 46°09' W 001°13'0 0.0
2017-Nov-11 06:29N 46°09' W 001°13'0 0.0
2017-Nov-11 05:59N 46°09' W 001°13'0 0.0
2017-Nov-11 05:23N 46°09' W 001°13'0 0.0
2017-Nov-11 04:59N 46°09' W 001°13'0 0.0
2017-Nov-11 03:35N 46°09' W 001°13'0 0.0
2017-Nov-11 03:17N 46°09' W 001°13'0 0.0
2017-Nov-11 00:59N 46°09' W 001°13'0 0.0
2017-Nov-11 00:29N 46°09' W 001°13'0 0.0
2017-Nov-10 23:59N 46°09' W 001°13'0 0.0
2017-Nov-10 23:23N 46°09' W 001°13'0 0.0
2017-Nov-10 22:59N 46°09' W 001°13'0 0.0
2017-Nov-10 22:29N 46°09' W 001°13'0 0.0
2017-Nov-10 21:59N 46°09' W 001°13'0 0.0
2017-Nov-10 21:29N 46°09' W 001°13'0 0.0
2017-Nov-10 20:59N 46°09' W 001°13'0 0.0
2017-Nov-10 20:29N 46°09' W 001°13'0 0.0
2017-Nov-10 19:59N 46°09' W 001°13'0 0.9
2017-Nov-10 19:30N 46°09' W 001°14'19 9.1
2017-Nov-10 17:23N 46°15' W 001°41'410.3
2017-Nov-10 17:01N 46°18' W 001°44'510.3
2017-Nov-10 16:31N 46°22' W 001°49'3 5.4
2017-Nov-10 16:00N 46°24' W 001°52'2 4.7
2017-Nov-10 15:30N 46°26' W 001°54'5 9.7
2017-Nov-10 15:00N 46°25' W 002°01'3 6.2
2017-Nov-10 14:30N 46°27' W 002°05'3 4.9
2017-Nov-10 14:00N 46°29' W 002°03'2 3.4
2017-Nov-10 13:30N 46°30' W 002°03'3 5.0
2017-Nov-10 12:59N 46°33' W 002°03'55 2.1
2017-Nov-09 10:31N 47°16' W 002°53'110.2
2017-Nov-09 10:24N 47°17' W 002°54'410.3
2017-Nov-09 10:00N 47°20' W 002°59'510.6
2017-Nov-09 09:30N 47°23' W 003°05'510.3
2017-Nov-09 09:00N 47°27' W 003°09'510.4
2017-Nov-09 08:31N 47°31' W 003°14'510.6
2017-Nov-09 08:01N 47°36' W 003°17'510.7
2017-Nov-09 07:31N 47°40' W 003°23'4 7.8
2017-Nov-09 07:01N 47°44' W 003°22'  
Track history (hours):
 
Tides and Currents Weather Stations Pressure Air Temp Water Temp Dewpoint Dewpoint Depression Visibility Wind Speed Wind Dir Waves Ship Positions

Cotes De La Manche

Last reported at 2017-Nov-19 06:31 UTC. Time now 2017-Nov-19 06:58 UTC.
Position N 45°32' W 001°09'.

Length 25 m; draft 3.7 m.

Type: . MMSI: 227091000.

Date/timePositionNaut miles runAvg speedWind from/ knotsBaromVisibWave heightAir tempDewpointWater temp
2017-Nov-19 06:31N 45°32' W 001°09'4 8.2
2017-Nov-19 06:00N 45°34' W 001°03'0 0.1
2017-Nov-19 05:31N 45°34' W 001°03'0 0.0
2017-Nov-19 05:00N 45°34' W 001°03'0 0.0
2017-Nov-19 04:31N 45°34' W 001°03'0 0.0
2017-Nov-19 04:01N 45°34' W 001°03'0 0.0
2017-Nov-19 03:30N 45°34' W 001°03'0 0.1
2017-Nov-19 02:59N 45°34' W 001°03'0 0.0
2017-Nov-19 02:31N 45°34' W 001°03'0 0.0
2017-Nov-19 02:00N 45°34' W 001°03'0 0.0
2017-Nov-19 01:30N 45°34' W 001°03'0 0.0
2017-Nov-19 01:01N 45°34' W 001°03'0 0.0
2017-Nov-19 00:31N 45°34' W 001°03'0 0.0
2017-Nov-19 00:01N 45°34' W 001°03'0 0.1
2017-Nov-18 23:30N 45°34' W 001°03'0 0.0
2017-Nov-18 23:00N 45°34' W 001°03'0 0.0
2017-Nov-18 22:31N 45°34' W 001°03'0 0.0
2017-Nov-18 22:01N 45°34' W 001°03'0 0.0
2017-Nov-18 21:31N 45°34' W 001°03'0 0.0
2017-Nov-18 21:00N 45°34' W 001°03'0 0.0
2017-Nov-18 20:30N 45°34' W 001°03'0 0.0
2017-Nov-18 20:01N 45°34' W 001°03'0 0.0
2017-Nov-18 19:31N 45°34' W 001°03'0 0.0
2017-Nov-18 19:00N 45°34' W 001°03'0 0.0
2017-Nov-18 18:31N 45°34' W 001°03'0 0.0
2017-Nov-18 18:01N 45°34' W 001°03'0 0.0
2017-Nov-18 17:29N 45°34' W 001°03'1 3.1
2017-Nov-18 17:01N 45°35' W 001°04'510.3
2017-Nov-18 16:30N 45°32' W 001°10'31 3.8
2017-Nov-18 08:24N 45°01' W 001°17'610.1
2017-Nov-18 07:51N 44°56' W 001°16'1 4.3
2017-Nov-18 07:30N 44°54' W 001°16'2 3.3
2017-Nov-18 07:00N 44°53' W 001°15'0 0.2
2017-Nov-18 06:30N 44°53' W 001°15'0 0.0
2017-Nov-18 06:00N 44°53' W 001°15'0 0.0
2017-Nov-18 05:30N 44°53' W 001°15'0 0.0
2017-Nov-18 05:00N 44°53' W 001°15'0 0.0
2017-Nov-18 04:30N 44°53' W 001°15'0 0.0
2017-Nov-18 04:00N 44°53' W 001°15'0 0.0
2017-Nov-18 03:30N 44°53' W 001°15'0 0.0
2017-Nov-18 03:00N 44°53' W 001°15'0 0.0
2017-Nov-18 02:30N 44°53' W 001°15'0 0.0
2017-Nov-18 02:00N 44°53' W 001°15'0 0.0
2017-Nov-18 01:30N 44°53' W 001°15'0 0.0
2017-Nov-18 01:00N 44°53' W 001°15'0 0.0
2017-Nov-18 00:30N 44°53' W 001°15'0 0.0
2017-Nov-18 00:00N 44°53' W 001°15'0 0.0
2017-Nov-17 23:30N 44°53' W 001°15'0 0.0
2017-Nov-17 23:00N 44°53' W 001°15'0 0.0
2017-Nov-17 22:30N 44°53' W 001°15'0 0.0
2017-Nov-17 22:00N 44°53' W 001°15'0 0.0
2017-Nov-17 21:30N 44°53' W 001°15'0 0.0
2017-Nov-17 21:00N 44°53' W 001°15'0 0.0
2017-Nov-17 20:30N 44°53' W 001°15'0 0.0
2017-Nov-17 19:58N 44°53' W 001°15'0 0.0
2017-Nov-17 19:30N 44°53' W 001°15'0 0.0
2017-Nov-17 19:00N 44°53' W 001°15'0 0.0
2017-Nov-17 18:30N 44°53' W 001°15'0 0.0
2017-Nov-17 18:00N 44°53' W 001°15'2 3.0
2017-Nov-17 17:28N 44°54' W 001°17'5 1.7
2017-Nov-17 14:25N 44°51' W 001°22'2 5.0
2017-Nov-17 14:00N 44°49' W 001°23'3 5.9
2017-Nov-17 13:30N 44°46' W 001°25'3 6.3
2017-Nov-17 13:00N 44°43' W 001°27'2 3.9
2017-Nov-17 12:30N 44°41' W 001°27'1 1.9
2017-Nov-17 11:59N 44°40' W 001°28'0 0.2
2017-Nov-17 11:29N 44°41' W 001°28'1 2.6
2017-Nov-17 10:59N 44°40' W 001°26'1 2.5
2017-Nov-17 10:29N 44°40' W 001°24'2 3.7
2017-Nov-17 10:00N 44°39' W 001°22'3 5.1
2017-Nov-17 09:30N 44°36' W 001°22'3 6.4
2017-Nov-17 09:00N 44°33' W 001°22'510.0
2017-Nov-17 08:30N 44°28' W 001°21'4 8.2
2017-Nov-17 08:00N 44°24' W 001°20'2 4.8
2017-Nov-17 07:30N 44°27' W 001°19'3 6.6
2017-Nov-17 07:00N 44°29' W 001°17'0 0.1
2017-Nov-17 06:30N 44°29' W 001°17'0 0.0
2017-Nov-17 06:00N 44°29' W 001°17'0 0.0
2017-Nov-17 05:27N 44°29' W 001°17'0 0.0
2017-Nov-17 05:00N 44°29' W 001°17'0 0.0
2017-Nov-17 04:30N 44°29' W 001°17'0 0.0
2017-Nov-17 04:00N 44°29' W 001°17'0 0.0
2017-Nov-17 03:27N 44°29' W 001°17'0 0.0
2017-Nov-17 03:00N 44°29' W 001°17'0 0.0
2017-Nov-17 02:30N 44°29' W 001°17'0 0.0
2017-Nov-17 02:00N 44°29' W 001°17'0 0.0
2017-Nov-17 01:27N 44°29' W 001°17'0 0.0
2017-Nov-17 00:51N 44°29' W 001°17'0 0.0
2017-Nov-17 00:24N 44°29' W 001°17'0 0.0
2017-Nov-17 00:00N 44°29' W 001°17'0 0.0
2017-Nov-16 23:27N 44°29' W 001°17'0 0.0
2017-Nov-16 23:00N 44°29' W 001°17'0 0.0
2017-Nov-16 22:30N 44°29' W 001°17'0 0.0
2017-Nov-16 21:57N 44°29' W 001°17'0 0.0
2017-Nov-16 21:30N 44°29' W 001°17'0 0.0
2017-Nov-16 21:00N 44°29' W 001°17'1 1.9
2017-Nov-16 20:30N 44°30' W 001°18'510.2
2017-Nov-16 20:00N 44°35' W 001°20'510.2
2017-Nov-16 19:30N 44°39' W 001°23'510.1
2017-Nov-16 19:00N 44°44' W 001°26'510.4
2017-Nov-16 18:30N 44°49' W 001°27'38 4.0
2017-Nov-16 08:59N 45°26' W 001°18'1 2.2
2017-Nov-16 08:30N 45°27' W 001°17'4 4.8
2017-Nov-16 07:45N 45°30' W 001°14'311.4
2017-Nov-16 07:30N 45°32' W 001°11'611.9
2017-Nov-16 07:00N 45°35' W 001°04'1 2.0
2017-Nov-16 06:28N 45°34' W 001°03'0 0.0
2017-Nov-16 05:55N 45°34' W 001°03'0 0.0
2017-Nov-16 05:28N 45°34' W 001°03'0 0.0
2017-Nov-16 04:52N 45°34' W 001°03'0 0.0
2017-Nov-16 04:28N 45°34' W 001°03'0 0.0
2017-Nov-16 03:52N 45°34' W 001°03'0 0.0
2017-Nov-16 03:28N 45°34' W 001°03'0 0.1
2017-Nov-16 02:58N 45°34' W 001°03'0 0.0
2017-Nov-16 02:07N 45°34' W 001°03'0 0.1
2017-Nov-16 01:58N 45°34' W 001°03'0 0.0
2017-Nov-16 01:22N 45°34' W 001°03'0 0.0
2017-Nov-16 00:58N 45°34' W 001°03'0 0.0
2017-Nov-16 00:22N 45°34' W 001°03'0 0.1
2017-Nov-15 23:55N 45°34' W 001°03'0 0.1
2017-Nov-15 23:22N 45°34' W 001°03'0 0.1
2017-Nov-15 22:58N 45°34' W 001°03'0 0.0
2017-Nov-15 22:25N 45°34' W 001°03'0 0.1
2017-Nov-15 21:58N 45°34' W 001°03'0 0.0
2017-Nov-15 21:25N 45°34' W 001°03'0 0.0
2017-Nov-15 20:34N 45°34' W 001°03'0 0.0
2017-Nov-15 20:28N 45°34' W 001°03'0 0.0
2017-Nov-15 19:55N 45°34' W 001°03'0 0.0
2017-Nov-15 19:25N 45°34' W 001°03'0 0.0
2017-Nov-15 18:58N 45°34' W 001°03'0 0.1
2017-Nov-15 18:30N 45°34' W 001°03'3 5.8
2017-Nov-15 18:00N 45°36' W 001°05'7 7.4
2017-Nov-15 17:01N 45°39' W 001°14'15 2.3
2017-Nov-15 10:12N 45°47' W 001°33'1 5.0
2017-Nov-15 09:57N 45°49' W 001°33'3 3.9
2017-Nov-15 09:15N 45°51' W 001°32'3 9.9
2017-Nov-15 09:00N 45°54' W 001°32'5 9.7
2017-Nov-15 08:30N 45°58' W 001°30'5 9.5
2017-Nov-15 08:00N 46°03' W 001°27'4 8.7
2017-Nov-15 07:30N 46°05' W 001°22'510.4
2017-Nov-15 07:00N 46°08' W 001°15'2 3.8
2017-Nov-15 06:30N 46°09' W 001°13'0 0.0
2017-Nov-15 06:00N 46°09' W 001°13'0 0.0
2017-Nov-15 05:30N 46°09' W 001°13'0 0.0
2017-Nov-15 05:00N 46°09' W 001°13'0 0.0
2017-Nov-15 04:30N 46°09' W 001°13'0 0.0
2017-Nov-15 04:00N 46°09' W 001°13'0 0.0
2017-Nov-15 03:30N 46°09' W 001°13'0 0.0
2017-Nov-15 03:00N 46°09' W 001°13'0 0.0
2017-Nov-15 02:30N 46°09' W 001°13'0 0.0
2017-Nov-15 02:00N 46°09' W 001°13'0 0.0
2017-Nov-15 01:30N 46°09' W 001°13'0 0.0
2017-Nov-15 01:00N 46°09' W 001°13'0 0.0
2017-Nov-15 00:30N 46°09' W 001°13'0 0.0
2017-Nov-15 00:00N 46°09' W 001°13'0 0.0
2017-Nov-14 23:30N 46°09' W 001°13'0 0.0
2017-Nov-14 23:00N 46°09' W 001°13'0 0.0
2017-Nov-14 22:30N 46°09' W 001°13'0 0.0
2017-Nov-14 22:00N 46°09' W 001°13'0 0.0
2017-Nov-14 21:30N 46°09' W 001°13'0 0.0
2017-Nov-14 21:00N 46°09' W 001°13'0 0.0
2017-Nov-14 20:30N 46°09' W 001°13'0 0.0
2017-Nov-14 20:00N 46°09' W 001°13'0 0.0
2017-Nov-14 19:30N 46°09' W 001°13'0 0.0
2017-Nov-14 19:00N 46°09' W 001°13'0 0.0
2017-Nov-14 18:30N 46°09' W 001°13'0 0.0
2017-Nov-14 18:00N 46°09' W 001°13'0 0.0
2017-Nov-14 17:30N 46°09' W 001°13'0 0.0
2017-Nov-14 17:00N 46°09' W 001°13'0 0.0
2017-Nov-14 16:30N 46°09' W 001°13'0 0.0
2017-Nov-14 16:00N 46°09' W 001°13'0 0.0
2017-Nov-14 15:30N 46°09' W 001°13'0 0.1
2017-Nov-14 15:00N 46°09' W 001°13'0 0.0
2017-Nov-14 14:30N 46°09' W 001°13'0 0.0
2017-Nov-14 14:00N 46°09' W 001°13'0 0.0
2017-Nov-14 13:30N 46°09' W 001°13'0 0.0
2017-Nov-14 13:00N 46°09' W 001°13'0 0.0
2017-Nov-14 12:30N 46°09' W 001°13'0 0.0
2017-Nov-14 12:00N 46°09' W 001°13'0 0.0
2017-Nov-14 11:30N 46°09' W 001°13'0 0.0
2017-Nov-14 11:00N 46°09' W 001°13'0 0.0
2017-Nov-14 10:30N 46°09' W 001°13'0 0.0
2017-Nov-14 10:00N 46°09' W 001°13'0 0.0
2017-Nov-14 09:30N 46°09' W 001°13'0 0.0
2017-Nov-14 09:00N 46°09' W 001°13'0 0.0
2017-Nov-14 07:51N 46°09' W 001°13'0 0.1
2017-Nov-14 07:30N 46°09' W 001°13'0 0.0
2017-Nov-14 07:00N 46°09' W 001°13'0 0.0
2017-Nov-14 06:30N 46°09' W 001°13'0 0.0
2017-Nov-14 06:00N 46°09' W 001°13'0 0.0
2017-Nov-14 05:27N 46°09' W 001°13'0 0.0
2017-Nov-14 05:00N 46°09' W 001°13'0 0.0
2017-Nov-14 04:30N 46°09' W 001°13'0 0.0
2017-Nov-14 04:00N 46°09' W 001°13'0 0.0
2017-Nov-14 03:27N 46°09' W 001°13'0 0.0
2017-Nov-14 03:00N 46°09' W 001°13'0 0.0
2017-Nov-14 02:30N 46°09' W 001°13'0 0.0
2017-Nov-14 02:00N 46°09' W 001°13'0 0.0
2017-Nov-14 01:30N 46°09' W 001°13'0 0.0
2017-Nov-14 01:00N 46°09' W 001°13'0 0.0
2017-Nov-14 00:30N 46°09' W 001°13'0 0.0
2017-Nov-14 00:00N 46°09' W 001°13'0 0.0
2017-Nov-13 23:30N 46°09' W 001°13'0 0.0
2017-Nov-13 22:57N 46°09' W 001°13'0 0.0
2017-Nov-13 22:30N 46°09' W 001°13'0 0.0
2017-Nov-13 22:00N 46°09' W 001°13'0 0.0
2017-Nov-13 01:55N 46°09' W 001°13'0 0.0
2017-Nov-13 01:28N 46°09' W 001°13'0 0.0
2017-Nov-13 00:58N 46°09' W 001°13'0 0.0
2017-Nov-13 00:25N 46°09' W 001°13'0 0.0
2017-Nov-12 23:58N 46°09' W 001°13'0 0.0
2017-Nov-12 23:28N 46°09' W 001°13'0 0.0
2017-Nov-12 22:58N 46°09' W 001°13'0 0.0
2017-Nov-12 22:28N 46°09' W 001°13'0 0.0
2017-Nov-12 21:58N 46°09' W 001°13'0 0.0
2017-Nov-12 21:25N 46°09' W 001°13'0 0.0
2017-Nov-12 20:58N 46°09' W 001°13'0 0.0
2017-Nov-12 20:25N 46°09' W 001°13'0 0.0
2017-Nov-12 19:58N 46°09' W 001°13'0 0.0
2017-Nov-12 19:28N 46°09' W 001°13'0 0.0
2017-Nov-12 18:58N 46°09' W 001°13'0 0.0
2017-Nov-12 18:28N 46°09' W 001°13'0 0.0
2017-Nov-12 17:58N 46°09' W 001°13'0 0.0
2017-Nov-12 17:28N 46°09' W 001°13'0 0.0
2017-Nov-12 16:59N 46°09' W 001°13'4 7.6
2017-Nov-12 16:30N 46°05' W 001°15'510.4
2017-Nov-12 16:00N 46°01' W 001°11'0 0.5
2017-Nov-12 15:30N 46°01' W 001°12'5 6.9
2017-Nov-12 14:51N 46°03' W 001°17'1 4.0
2017-Nov-12 14:30N 46°04' W 001°19'3 5.4
2017-Nov-12 14:00N 46°06' W 001°16'3 6.4
2017-Nov-12 13:29N 46°09' W 001°13'0 0.0
2017-Nov-12 12:59N 46°09' W 001°13'0 0.0
2017-Nov-12 12:29N 46°09' W 001°13'0 0.0
2017-Nov-12 11:59N 46°09' W 001°13'0 0.0
2017-Nov-12 11:26N 46°09' W 001°13'0 0.0
2017-Nov-12 10:59N 46°09' W 001°13'0 0.0
2017-Nov-12 10:29N 46°09' W 001°13'0 0.0
2017-Nov-12 09:59N 46°09' W 001°13'0 0.0
2017-Nov-12 09:29N 46°09' W 001°13'0 0.0
2017-Nov-12 08:59N 46°09' W 001°13'0 0.0
2017-Nov-12 08:29N 46°09' W 001°13'0 0.0
2017-Nov-12 07:59N 46°09' W 001°13'0 0.0
2017-Nov-12 07:29N 46°09' W 001°13'0 0.0
2017-Nov-12 06:59N 46°09' W 001°13'0 0.0
2017-Nov-12 06:29N 46°09' W 001°13'0 0.0
2017-Nov-12 05:56N 46°09' W 001°13'0 0.0
2017-Nov-12 05:29N 46°09' W 001°13'0 0.0
2017-Nov-12 04:59N 46°09' W 001°13'0 0.0
2017-Nov-12 04:29N 46°09' W 001°13'0 0.0
2017-Nov-12 03:59N 46°09' W 001°13'0 0.0
2017-Nov-12 03:29N 46°09' W 001°13'0 0.0
2017-Nov-12 02:59N 46°09' W 001°13'0 0.0
2017-Nov-12 02:29N 46°09' W 001°13'0 0.0
2017-Nov-12 01:56N 46°09' W 001°13'0 0.0
2017-Nov-12 01:29N 46°09' W 001°13'0 0.0
2017-Nov-12 00:59N 46°09' W 001°13'0 0.0
2017-Nov-12 00:29N 46°09' W 001°13'0 0.0
2017-Nov-11 23:59N 46°09' W 001°13'0 0.0
2017-Nov-11 23:29N 46°09' W 001°13'0 0.0
2017-Nov-11 22:59N 46°09' W 001°13'0 0.0
2017-Nov-11 22:29N 46°09' W 001°13'0 0.0
2017-Nov-11 21:59N 46°09' W 001°13'0 0.0
2017-Nov-11 21:29N 46°09' W 001°13'0 0.0
2017-Nov-11 20:59N 46°09' W 001°13'0 0.0
2017-Nov-11 20:29N 46°09' W 001°13'0 0.0
2017-Nov-11 19:59N 46°09' W 001°13'0 0.0
2017-Nov-11 19:29N 46°09' W 001°13'0 0.0
2017-Nov-11 18:59N 46°09' W 001°13'0 0.0
2017-Nov-11 18:29N 46°09' W 001°13'0 0.0
2017-Nov-11 17:59N 46°09' W 001°13'0 0.0
2017-Nov-11 17:29N 46°09' W 001°13'0 0.0
2017-Nov-11 16:59N 46°09' W 001°13'0 0.0
2017-Nov-11 16:23N 46°09' W 001°13'0 0.0
2017-Nov-11 15:59N 46°09' W 001°13'0 0.0
2017-Nov-11 15:29N 46°09' W 001°13'0 0.0
2017-Nov-11 14:59N 46°09' W 001°13'0 0.0
2017-Nov-11 14:29N 46°09' W 001°13'0 0.0
2017-Nov-11 13:56N 46°09' W 001°13'0 0.0
2017-Nov-11 13:29N 46°09' W 001°13'0 0.0
2017-Nov-11 12:59N 46°09' W 001°13'0 0.0
2017-Nov-11 12:29N 46°09' W 001°13'0 0.0
2017-Nov-11 11:59N 46°09' W 001°13'0 0.0
2017-Nov-11 11:29N 46°09' W 001°13'0 0.0
2017-Nov-11 10:59N 46°09' W 001°13'0 0.0
2017-Nov-11 10:29N 46°09' W 001°13'0 0.0
2017-Nov-11 09:59N 46°09' W 001°13'0 0.0
2017-Nov-11 09:29N 46°09' W 001°13'0 0.0
2017-Nov-11 08:59N 46°09' W 001°13'0 0.0
2017-Nov-11 08:29N 46°09' W 001°13'0 0.0
2017-Nov-11 07:59N 46°09' W 001°13'0 0.0
2017-Nov-11 07:26N 46°09' W 001°13'0 0.0
2017-Nov-11 06:59N 46°09' W 001°13'0 0.0
2017-Nov-11 06:29N 46°09' W 001°13'0 0.0
2017-Nov-11 05:59N 46°09' W 001°13'0 0.0
2017-Nov-11 05:23N 46°09' W 001°13'0 0.0
2017-Nov-11 04:59N 46°09' W 001°13'0 0.0
2017-Nov-11 03:35N 46°09' W 001°13'0 0.0
2017-Nov-11 03:17N 46°09' W 001°13'0 0.0
2017-Nov-11 00:59N 46°09' W 001°13'0 0.0
2017-Nov-11 00:29N 46°09' W 001°13'0 0.0
2017-Nov-10 23:59N 46°09' W 001°13'0 0.0
2017-Nov-10 23:23N 46°09' W 001°13'0 0.0
2017-Nov-10 22:59N 46°09' W 001°13'0 0.0
2017-Nov-10 22:29N 46°09' W 001°13'0 0.0
2017-Nov-10 21:59N 46°09' W 001°13'0 0.0
2017-Nov-10 21:29N 46°09' W 001°13'0 0.0
2017-Nov-10 20:59N 46°09' W 001°13'0 0.0
2017-Nov-10 20:29N 46°09' W 001°13'0 0.0
2017-Nov-10 19:59N 46°09' W 001°13'0 0.9
2017-Nov-10 19:30N 46°09' W 001°14'19 9.1
2017-Nov-10 17:23N 46°15' W 001°41'410.3
2017-Nov-10 17:01N 46°18' W 001°44'510.3
2017-Nov-10 16:31N 46°22' W 001°49'3 5.4
2017-Nov-10 16:00N 46°24' W 001°52'2 4.7
2017-Nov-10 15:30N 46°26' W 001°54'5 9.7
2017-Nov-10 15:00N 46°25' W 002°01'3 6.2
2017-Nov-10 14:30N 46°27' W 002°05'3 4.9
2017-Nov-10 14:00N 46°29' W 002°03'2 3.4
2017-Nov-10 13:30N 46°30' W 002°03'3 5.0
2017-Nov-10 12:59N 46°33' W 002°03'55 2.1
2017-Nov-09 10:31N 47°16' W 002°53'110.2
2017-Nov-09 10:24N 47°17' W 002°54'410.3
2017-Nov-09 10:00N 47°20' W 002°59'510.6
2017-Nov-09 09:30N 47°23' W 003°05'510.3
2017-Nov-09 09:00N 47°27' W 003°09'510.4
2017-Nov-09 08:31N 47°31' W 003°14'510.6
2017-Nov-09 08:01N 47°36' W 003°17'510.7
2017-Nov-09 07:31N 47°40' W 003°23'4 7.8
2017-Nov-09 07:01N 47°44' W 003°22'  

Dump ship's entire track history